sensor_id;sensor_type;location;lat;lon;timestamp;P1;durP1;ratioP1;P2;durP2;ratioP2
9970;SDS011;5026;51.494;11.974;2023-04-24T00:01:23;1.77;;;1.58;;
9970;SDS011;5026;51.494;11.974;2023-04-24T00:03:50;1.80;;;1.42;;
9970;SDS011;5026;51.494;11.974;2023-04-24T00:06:17;3.13;;;1.58;;
9970;SDS011;5026;51.494;11.974;2023-04-24T00:08:46;2.95;;;1.38;;
9970;SDS011;5026;51.494;11.974;2023-04-24T00:11:12;2.08;;;1.30;;
9970;SDS011;5026;51.494;11.974;2023-04-24T00:13:39;3.30;;;1.52;;
9970;SDS011;5026;51.494;11.974;2023-04-24T00:16:06;1.05;;;1.05;;
9970;SDS011;5026;51.494;11.974;2023-04-24T00:18:33;1.38;;;1.13;;
9970;SDS011;5026;51.494;11.974;2023-04-24T00:21:00;1.05;;;1.00;;
9970;SDS011;5026;51.494;11.974;2023-04-24T00:23:27;0.80;;;0.80;;
9970;SDS011;5026;51.494;11.974;2023-04-24T00:25:56;0.80;;;0.80;;
9970;SDS011;5026;51.494;11.974;2023-04-24T00:28:23;1.50;;;0.88;;
9970;SDS011;5026;51.494;11.974;2023-04-24T00:30:49;1.55;;;0.77;;
9970;SDS011;5026;51.494;11.974;2023-04-24T00:33:18;1.38;;;1.00;;
9970;SDS011;5026;51.494;11.974;2023-04-24T00:35:45;0.82;;;0.82;;
9970;SDS011;5026;51.494;11.974;2023-04-24T00:38:12;0.75;;;0.68;;
9970;SDS011;5026;51.494;11.974;2023-04-24T00:40:39;0.60;;;0.60;;
9970;SDS011;5026;51.494;11.974;2023-04-24T00:43:07;0.77;;;0.77;;
9970;SDS011;5026;51.494;11.974;2023-04-24T00:45:35;1.15;;;0.80;;
9970;SDS011;5026;51.494;11.974;2023-04-24T00:48:02;1.97;;;0.93;;
9970;SDS011;5026;51.494;11.974;2023-04-24T00:50:30;0.67;;;0.67;;
9970;SDS011;5026;51.494;11.974;2023-04-24T00:52:57;1.90;;;0.68;;
9970;SDS011;5026;51.494;11.974;2023-04-24T00:55:24;0.75;;;0.60;;
9970;SDS011;5026;51.494;11.974;2023-04-24T00:57:51;1.63;;;0.70;;
9970;SDS011;5026;51.494;11.974;2023-04-24T01:00:21;0.87;;;0.60;;
9970;SDS011;5026;51.494;11.974;2023-04-24T01:02:48;0.70;;;0.63;;
9970;SDS011;5026;51.494;11.974;2023-04-24T01:05:16;0.53;;;0.53;;
9970;SDS011;5026;51.494;11.974;2023-04-24T01:07:44;1.17;;;0.47;;
9970;SDS011;5026;51.494;11.974;2023-04-24T01:10:14;0.57;;;0.53;;
9970;SDS011;5026;51.494;11.974;2023-04-24T01:12:42;0.67;;;0.67;;
9970;SDS011;5026;51.494;11.974;2023-04-24T01:15:09;0.60;;;0.60;;
9970;SDS011;5026;51.494;11.974;2023-04-24T01:17:39;0.53;;;0.53;;
9970;SDS011;5026;51.494;11.974;2023-04-24T01:20:06;1.20;;;0.67;;
9970;SDS011;5026;51.494;11.974;2023-04-24T01:22:35;3.83;;;0.73;;
9970;SDS011;5026;51.494;11.974;2023-04-24T01:25:02;0.97;;;0.60;;
9970;SDS011;5026;51.494;11.974;2023-04-24T01:27:30;1.00;;;0.70;;
9970;SDS011;5026;51.494;11.974;2023-04-24T01:29:58;0.93;;;0.60;;
9970;SDS011;5026;51.494;11.974;2023-04-24T01:32:25;0.53;;;0.53;;
9970;SDS011;5026;51.494;11.974;2023-04-24T01:34:53;1.80;;;0.90;;
9970;SDS011;5026;51.494;11.974;2023-04-24T01:37:21;0.83;;;0.80;;
9970;SDS011;5026;51.494;11.974;2023-04-24T01:39:49;0.73;;;0.60;;
9970;SDS011;5026;51.494;11.974;2023-04-24T01:42:16;1.13;;;0.87;;
9970;SDS011;5026;51.494;11.974;2023-04-24T01:44:43;0.63;;;0.60;;
9970;SDS011;5026;51.494;11.974;2023-04-24T01:47:11;0.80;;;0.80;;
9970;SDS011;5026;51.494;11.974;2023-04-24T01:49:38;1.53;;;0.80;;
9970;SDS011;5026;51.494;11.974;2023-04-24T01:52:05;0.90;;;0.90;;
9970;SDS011;5026;51.494;11.974;2023-04-24T01:54:32;0.70;;;0.70;;
9970;SDS011;5026;51.494;11.974;2023-04-24T01:57:01;1.37;;;0.80;;
9970;SDS011;5026;51.494;11.974;2023-04-24T01:59:28;0.80;;;0.80;;
9970;SDS011;5026;51.494;11.974;2023-04-24T02:01:58;0.77;;;0.70;;
9970;SDS011;5026;51.494;11.974;2023-04-24T02:04:25;1.00;;;0.70;;
9970;SDS011;5026;51.494;11.974;2023-04-24T02:06:52;1.17;;;1.07;;
9970;SDS011;5026;51.494;11.974;2023-04-24T02:09:18;0.70;;;0.70;;
9970;SDS011;5026;51.494;11.974;2023-04-24T02:11:45;1.30;;;0.90;;
9970;SDS011;5026;51.494;11.974;2023-04-24T02:14:14;1.20;;;1.10;;
9970;SDS011;5026;51.494;11.974;2023-04-24T02:16:41;1.20;;;1.10;;
9970;SDS011;5026;51.494;11.974;2023-04-24T02:19:08;0.90;;;0.87;;
9970;SDS011;5026;51.494;11.974;2023-04-24T02:21:35;1.23;;;0.90;;
9970;SDS011;5026;51.494;11.974;2023-04-24T02:24:03;1.93;;;0.93;;
9970;SDS011;5026;51.494;11.974;2023-04-24T02:26:30;1.20;;;1.10;;
9970;SDS011;5026;51.494;11.974;2023-04-24T02:28:58;0.90;;;0.90;;
9970;SDS011;5026;51.494;11.974;2023-04-24T02:31:26;0.83;;;0.80;;
9970;SDS011;5026;51.494;11.974;2023-04-24T02:33:53;1.90;;;0.93;;
9970;SDS011;5026;51.494;11.974;2023-04-24T02:36:20;1.77;;;0.93;;
9970;SDS011;5026;51.494;11.974;2023-04-24T02:38:47;0.97;;;0.87;;
9970;SDS011;5026;51.494;11.974;2023-04-24T02:41:14;1.50;;;1.00;;
9970;SDS011;5026;51.494;11.974;2023-04-24T02:43:41;1.03;;;0.90;;
9970;SDS011;5026;51.494;11.974;2023-04-24T02:46:08;0.90;;;0.90;;
9970;SDS011;5026;51.494;11.974;2023-04-24T02:48:36;1.20;;;1.10;;
9970;SDS011;5026;51.494;11.974;2023-04-24T02:51:03;1.50;;;0.97;;
9970;SDS011;5026;51.494;11.974;2023-04-24T02:53:31;1.30;;;0.97;;
9970;SDS011;5026;51.494;11.974;2023-04-24T02:55:58;2.63;;;1.10;;
9970;SDS011;5026;51.494;11.974;2023-04-24T02:58:25;1.57;;;1.00;;
9970;SDS011;5026;51.494;11.974;2023-04-24T03:00:53;1.27;;;1.00;;
9970;SDS011;5026;51.494;11.974;2023-04-24T03:03:20;0.80;;;0.80;;
9970;SDS011;5026;51.494;11.974;2023-04-24T03:05:49;2.27;;;1.20;;
9970;SDS011;5026;51.494;11.974;2023-04-24T03:08:16;2.63;;;1.00;;
9970;SDS011;5026;51.494;11.974;2023-04-24T03:10:43;1.30;;;1.00;;
9970;SDS011;5026;51.494;11.974;2023-04-24T03:13:10;1.90;;;0.90;;
9970;SDS011;5026;51.494;11.974;2023-04-24T03:15:37;2.40;;;0.90;;
9970;SDS011;5026;51.494;11.974;2023-04-24T03:18:04;1.23;;;0.90;;
9970;SDS011;5026;51.494;11.974;2023-04-24T03:20:31;2.03;;;1.00;;
9970;SDS011;5026;51.494;11.974;2023-04-24T03:22:59;2.20;;;1.17;;
9970;SDS011;5026;51.494;11.974;2023-04-24T03:25:26;1.63;;;1.10;;
9970;SDS011;5026;51.494;11.974;2023-04-24T03:27:53;1.37;;;0.90;;
9970;SDS011;5026;51.494;11.974;2023-04-24T03:30:20;1.87;;;0.83;;
9970;SDS011;5026;51.494;11.974;2023-04-24T03:32:47;2.13;;;1.00;;
9970;SDS011;5026;51.494;11.974;2023-04-24T03:35:15;1.17;;;1.00;;
9970;SDS011;5026;51.494;11.974;2023-04-24T03:37:41;1.80;;;0.80;;
9970;SDS011;5026;51.494;11.974;2023-04-24T03:40:10;1.37;;;1.27;;
9970;SDS011;5026;51.494;11.974;2023-04-24T03:42:37;1.30;;;1.20;;
9970;SDS011;5026;51.494;11.974;2023-04-24T03:45:05;1.43;;;1.17;;
9970;SDS011;5026;51.494;11.974;2023-04-24T03:47:32;3.07;;;1.20;;
9970;SDS011;5026;51.494;11.974;2023-04-24T03:49:59;1.30;;;1.20;;
9970;SDS011;5026;51.494;11.974;2023-04-24T03:52:27;1.70;;;1.03;;
9970;SDS011;5026;51.494;11.974;2023-04-24T03:54:53;1.30;;;1.00;;
9970;SDS011;5026;51.494;11.974;2023-04-24T03:57:22;1.30;;;1.20;;
9970;SDS011;5026;51.494;11.974;2023-04-24T03:59:49;2.83;;;1.10;;
9970;SDS011;5026;51.494;11.974;2023-04-24T04:02:18;1.63;;;1.20;;
9970;SDS011;5026;51.494;11.974;2023-04-24T04:04:45;1.20;;;1.10;;
9970;SDS011;5026;51.494;11.974;2023-04-24T04:07:12;1.50;;;0.90;;
9970;SDS011;5026;51.494;11.974;2023-04-24T04:09:39;1.87;;;1.00;;
9970;SDS011;5026;51.494;11.974;2023-04-24T04:12:06;3.23;;;1.43;;
9970;SDS011;5026;51.494;11.974;2023-04-24T04:14:34;1.10;;;1.10;;
9970;SDS011;5026;51.494;11.974;2023-04-24T04:17:01;1.27;;;1.17;;
9970;SDS011;5026;51.494;11.974;2023-04-24T04:19:28;2.47;;;1.40;;
9970;SDS011;5026;51.494;11.974;2023-04-24T04:21:55;1.70;;;1.13;;
9970;SDS011;5026;51.494;11.974;2023-04-24T04:24:22;1.33;;;1.20;;
9970;SDS011;5026;51.494;11.974;2023-04-24T04:26:51;1.97;;;0.90;;
9970;SDS011;5026;51.494;11.974;2023-04-24T04:29:21;1.40;;;1.10;;
9970;SDS011;5026;51.494;11.974;2023-04-24T04:31:50;1.50;;;0.90;;
9970;SDS011;5026;51.494;11.974;2023-04-24T04:34:17;1.90;;;0.90;;
9970;SDS011;5026;51.494;11.974;2023-04-24T04:36:44;1.27;;;1.20;;
9970;SDS011;5026;51.494;11.974;2023-04-24T04:39:11;0.83;;;0.83;;
9970;SDS011;5026;51.494;11.974;2023-04-24T04:41:39;1.13;;;1.00;;
9970;SDS011;5026;51.494;11.974;2023-04-24T04:44:06;0.93;;;0.93;;
9970;SDS011;5026;51.494;11.974;2023-04-24T04:46:34;1.20;;;1.10;;
9970;SDS011;5026;51.494;11.974;2023-04-24T04:49:04;1.63;;;0.97;;
9970;SDS011;5026;51.494;11.974;2023-04-24T04:51:33;1.53;;;1.43;;
9970;SDS011;5026;51.494;11.974;2023-04-24T04:54:00;1.90;;;1.07;;
9970;SDS011;5026;51.494;11.974;2023-04-24T04:56:27;1.23;;;1.10;;
9970;SDS011;5026;51.494;11.974;2023-04-24T04:58:54;1.30;;;1.20;;
9970;SDS011;5026;51.494;11.974;2023-04-24T05:01:21;2.07;;;1.23;;
9970;SDS011;5026;51.494;11.974;2023-04-24T05:03:50;3.67;;;1.63;;
9970;SDS011;5026;51.494;11.974;2023-04-24T05:06:18;1.73;;;1.30;;
9970;SDS011;5026;51.494;11.974;2023-04-24T05:08:45;1.43;;;1.33;;
9970;SDS011;5026;51.494;11.974;2023-04-24T05:11:13;3.10;;;1.52;;
9970;SDS011;5026;51.494;11.974;2023-04-24T05:13:41;2.60;;;1.10;;
9970;SDS011;5026;51.494;11.974;2023-04-24T05:16:08;2.37;;;1.63;;
9970;SDS011;5026;51.494;11.974;2023-04-24T05:18:35;1.45;;;1.30;;
9970;SDS011;5026;51.494;11.974;2023-04-24T05:21:03;2.20;;;1.25;;
9970;SDS011;5026;51.494;11.974;2023-04-24T05:23:32;3.85;;;1.42;;
9970;SDS011;5026;51.494;11.974;2023-04-24T05:26:00;2.28;;;1.63;;
9970;SDS011;5026;51.494;11.974;2023-04-24T05:28:28;1.50;;;1.27;;
9970;SDS011;5026;51.494;11.974;2023-04-24T05:30:55;2.97;;;1.33;;
9970;SDS011;5026;51.494;11.974;2023-04-24T05:33:24;1.98;;;1.17;;
9970;SDS011;5026;51.494;11.974;2023-04-24T05:35:51;2.60;;;1.13;;
9970;SDS011;5026;51.494;11.974;2023-04-24T05:38:18;1.48;;;1.38;;
9970;SDS011;5026;51.494;11.974;2023-04-24T05:40:46;1.40;;;1.30;;
9970;SDS011;5026;51.494;11.974;2023-04-24T05:43:13;1.73;;;1.33;;
9970;SDS011;5026;51.494;11.974;2023-04-24T05:45:43;1.17;;;1.05;;
9970;SDS011;5026;51.494;11.974;2023-04-24T05:48:10;1.80;;;1.15;;
9970;SDS011;5026;51.494;11.974;2023-04-24T05:50:37;1.73;;;1.60;;
9970;SDS011;5026;51.494;11.974;2023-04-24T05:53:05;2.30;;;1.95;;
9970;SDS011;5026;51.494;11.974;2023-04-24T05:55:32;3.45;;;1.50;;
9970;SDS011;5026;51.494;11.974;2023-04-24T05:58:02;0.90;;;0.90;;
9970;SDS011;5026;51.494;11.974;2023-04-24T06:00:29;2.13;;;1.10;;
9970;SDS011;5026;51.494;11.974;2023-04-24T06:02:57;1.60;;;1.00;;
9970;SDS011;5026;51.494;11.974;2023-04-24T06:05:24;1.08;;;0.90;;
9970;SDS011;5026;51.494;11.974;2023-04-24T06:07:51;3.35;;;1.05;;
9970;SDS011;5026;51.494;11.974;2023-04-24T06:10:18;2.25;;;0.90;;
9970;SDS011;5026;51.494;11.974;2023-04-24T06:12:45;1.13;;;0.70;;
9970;SDS011;5026;51.494;11.974;2023-04-24T06:15:14;1.08;;;0.80;;
9970;SDS011;5026;51.494;11.974;2023-04-24T06:17:41;0.90;;;0.70;;
9970;SDS011;5026;51.494;11.974;2023-04-24T06:20:08;1.40;;;0.80;;
9970;SDS011;5026;51.494;11.974;2023-04-24T06:22:36;1.15;;;0.90;;
9970;SDS011;5026;51.494;11.974;2023-04-24T06:25:05;1.65;;;0.80;;
9970;SDS011;5026;51.494;11.974;2023-04-24T06:27:32;1.98;;;0.63;;
9970;SDS011;5026;51.494;11.974;2023-04-24T06:30:00;2.28;;;0.80;;
9970;SDS011;5026;51.494;11.974;2023-04-24T06:32:28;2.15;;;1.00;;
9970;SDS011;5026;51.494;11.974;2023-04-24T06:34:56;0.93;;;0.52;;
9970;SDS011;5026;51.494;11.974;2023-04-24T06:37:24;0.98;;;0.82;;
9970;SDS011;5026;51.494;11.974;2023-04-24T06:39:51;1.30;;;0.85;;
9970;SDS011;5026;51.494;11.974;2023-04-24T06:42:17;2.00;;;0.80;;
9970;SDS011;5026;51.494;11.974;2023-04-24T06:44:45;1.27;;;0.80;;
9970;SDS011;5026;51.494;11.974;2023-04-24T06:47:13;1.33;;;0.75;;
9970;SDS011;5026;51.494;11.974;2023-04-24T06:49:41;1.77;;;0.98;;
9970;SDS011;5026;51.494;11.974;2023-04-24T06:52:08;1.98;;;1.00;;
9970;SDS011;5026;51.494;11.974;2023-04-24T06:54:36;1.08;;;0.90;;
9970;SDS011;5026;51.494;11.974;2023-04-24T06:57:03;1.48;;;0.68;;
9970;SDS011;5026;51.494;11.974;2023-04-24T06:59:30;1.75;;;0.68;;
9970;SDS011;5026;51.494;11.974;2023-04-24T07:01:57;2.03;;;0.98;;
9970;SDS011;5026;51.494;11.974;2023-04-24T07:04:24;1.55;;;1.00;;
9970;SDS011;5026;51.494;11.974;2023-04-24T07:06:52;2.67;;;1.30;;
9970;SDS011;5026;51.494;11.974;2023-04-24T07:09:21;0.75;;;0.75;;
9970;SDS011;5026;51.494;11.974;2023-04-24T07:11:49;0.98;;;0.70;;
9970;SDS011;5026;51.494;11.974;2023-04-24T07:14:16;0.77;;;0.73;;
9970;SDS011;5026;51.494;11.974;2023-04-24T07:16:44;2.95;;;1.30;;
9970;SDS011;5026;51.494;11.974;2023-04-24T07:19:11;1.38;;;0.82;;
9970;SDS011;5026;51.494;11.974;2023-04-24T07:21:39;1.40;;;0.60;;
9970;SDS011;5026;51.494;11.974;2023-04-24T07:24:07;1.60;;;0.85;;
9970;SDS011;5026;51.494;11.974;2023-04-24T07:26:36;0.82;;;0.55;;
9970;SDS011;5026;51.494;11.974;2023-04-24T07:29:04;1.85;;;0.88;;
9970;SDS011;5026;51.494;11.974;2023-04-24T07:31:31;1.13;;;0.82;;
9970;SDS011;5026;51.494;11.974;2023-04-24T07:33:58;1.55;;;0.80;;
9970;SDS011;5026;51.494;11.974;2023-04-24T07:36:25;0.65;;;0.60;;
9970;SDS011;5026;51.494;11.974;2023-04-24T07:38:53;1.60;;;0.80;;
9970;SDS011;5026;51.494;11.974;2023-04-24T07:41:22;2.72;;;1.08;;
9970;SDS011;5026;51.494;11.974;2023-04-24T07:43:50;1.25;;;0.63;;
9970;SDS011;5026;51.494;11.974;2023-04-24T07:46:17;1.10;;;0.57;;
9970;SDS011;5026;51.494;11.974;2023-04-24T07:48:44;1.60;;;0.70;;
9970;SDS011;5026;51.494;11.974;2023-04-24T07:51:13;0.80;;;0.80;;
9970;SDS011;5026;51.494;11.974;2023-04-24T07:53:40;1.00;;;0.75;;
9970;SDS011;5026;51.494;11.974;2023-04-24T07:56:08;1.30;;;0.90;;
9970;SDS011;5026;51.494;11.974;2023-04-24T07:58:36;0.80;;;0.70;;
9970;SDS011;5026;51.494;11.974;2023-04-24T08:01:03;2.47;;;0.70;;
9970;SDS011;5026;51.494;11.974;2023-04-24T08:03:30;1.35;;;0.55;;
9970;SDS011;5026;51.494;11.974;2023-04-24T08:05:57;4.85;;;0.70;;
9970;SDS011;5026;51.494;11.974;2023-04-24T08:08:25;1.85;;;0.70;;
9970;SDS011;5026;51.494;11.974;2023-04-24T08:10:52;0.98;;;0.65;;
9970;SDS011;5026;51.494;11.974;2023-04-24T08:13:20;3.42;;;1.10;;
9970;SDS011;5026;51.494;11.974;2023-04-24T08:15:48;1.05;;;0.70;;
9970;SDS011;5026;51.494;11.974;2023-04-24T08:18:15;1.02;;;0.57;;
9970;SDS011;5026;51.494;11.974;2023-04-24T08:20:42;0.77;;;0.68;;
9970;SDS011;5026;51.494;11.974;2023-04-24T08:23:10;0.73;;;0.57;;
9970;SDS011;5026;51.494;11.974;2023-04-24T08:25:37;0.85;;;0.70;;
9970;SDS011;5026;51.494;11.974;2023-04-24T08:28:05;0.85;;;0.55;;
9970;SDS011;5026;51.494;11.974;2023-04-24T08:30:32;0.50;;;0.50;;
9970;SDS011;5026;51.494;11.974;2023-04-24T08:33:01;0.98;;;0.70;;
9970;SDS011;5026;51.494;11.974;2023-04-24T08:35:28;1.10;;;0.80;;
9970;SDS011;5026;51.494;11.974;2023-04-24T08:37:55;0.50;;;0.50;;
9970;SDS011;5026;51.494;11.974;2023-04-24T08:40:23;2.38;;;0.80;;
9970;SDS011;5026;51.494;11.974;2023-04-24T08:42:55;0.88;;;0.82;;
9970;SDS011;5026;51.494;11.974;2023-04-24T08:45:22;1.00;;;0.70;;
9970;SDS011;5026;51.494;11.974;2023-04-24T08:47:51;1.55;;;0.77;;
9970;SDS011;5026;51.494;11.974;2023-04-24T08:50:21;0.98;;;0.75;;
9970;SDS011;5026;51.494;11.974;2023-04-24T08:52:49;1.38;;;0.90;;
9970;SDS011;5026;51.494;11.974;2023-04-24T08:55:18;0.73;;;0.73;;
9970;SDS011;5026;51.494;11.974;2023-04-24T08:57:49;2.20;;;0.80;;
9970;SDS011;5026;51.494;11.974;2023-04-24T09:00:17;1.73;;;0.80;;
9970;SDS011;5026;51.494;11.974;2023-04-24T09:02:46;1.77;;;0.95;;
9970;SDS011;5026;51.494;11.974;2023-04-24T09:05:16;1.20;;;0.60;;
9970;SDS011;5026;51.494;11.974;2023-04-24T09:07:48;0.95;;;0.60;;
9970;SDS011;5026;51.494;11.974;2023-04-24T09:10:19;0.77;;;0.77;;
9970;SDS011;5026;51.494;11.974;2023-04-24T09:12:47;2.60;;;0.85;;
9970;SDS011;5026;51.494;11.974;2023-04-24T09:15:16;0.77;;;0.75;;
9970;SDS011;5026;51.494;11.974;2023-04-24T09:17:43;0.73;;;0.73;;
9970;SDS011;5026;51.494;11.974;2023-04-24T09:20:10;0.80;;;0.80;;
9970;SDS011;5026;51.494;11.974;2023-04-24T09:22:37;1.23;;;0.80;;
9970;SDS011;5026;51.494;11.974;2023-04-24T09:25:07;2.60;;;0.63;;
9970;SDS011;5026;51.494;11.974;2023-04-24T09:27:38;0.80;;;0.80;;
9970;SDS011;5026;51.494;11.974;2023-04-24T09:30:10;1.25;;;1.05;;
9970;SDS011;5026;51.494;11.974;2023-04-24T09:32:37;0.90;;;0.90;;
9970;SDS011;5026;51.494;11.974;2023-04-24T09:35:05;1.98;;;0.80;;
9970;SDS011;5026;51.494;11.974;2023-04-24T09:37:35;1.88;;;0.98;;
9970;SDS011;5026;51.494;11.974;2023-04-24T09:40:12;0.88;;;0.77;;
9970;SDS011;5026;51.494;11.974;2023-04-24T09:42:43;2.08;;;1.30;;
9970;SDS011;5026;51.494;11.974;2023-04-24T09:45:11;1.20;;;0.80;;
9970;SDS011;5026;51.494;11.974;2023-04-24T09:47:38;2.05;;;0.90;;
9970;SDS011;5026;51.494;11.974;2023-04-24T09:50:09;2.00;;;0.80;;
9970;SDS011;5026;51.494;11.974;2023-04-24T09:52:41;1.00;;;0.90;;
9970;SDS011;5026;51.494;11.974;2023-04-24T09:55:15;0.95;;;0.70;;
9970;SDS011;5026;51.494;11.974;2023-04-24T09:57:48;0.70;;;0.70;;
9970;SDS011;5026;51.494;11.974;2023-04-24T10:00:22;1.65;;;0.70;;
9970;SDS011;5026;51.494;11.974;2023-04-24T10:02:55;2.45;;;0.77;;
9970;SDS011;5026;51.494;11.974;2023-04-24T10:05:23;1.00;;;1.00;;
9970;SDS011;5026;51.494;11.974;2023-04-24T10:07:55;1.95;;;1.08;;
9970;SDS011;5026;51.494;11.974;2023-04-24T10:10:25;1.65;;;1.20;;
9970;SDS011;5026;51.494;11.974;2023-04-24T10:12:52;1.10;;;1.00;;
9970;SDS011;5026;51.494;11.974;2023-04-24T10:15:21;1.27;;;1.17;;
9970;SDS011;5026;51.494;11.974;2023-04-24T10:17:48;1.05;;;1.00;;
9970;SDS011;5026;51.494;11.974;2023-04-24T10:20:19;2.05;;;1.10;;
9970;SDS011;5026;51.494;11.974;2023-04-24T10:22:48;1.23;;;1.13;;
9970;SDS011;5026;51.494;11.974;2023-04-24T10:25:17;7.80;;;2.17;;
9970;SDS011;5026;51.494;11.974;2023-04-24T10:27:47;1.45;;;0.95;;
9970;SDS011;5026;51.494;11.974;2023-04-24T10:30:16;0.93;;;0.93;;
9970;SDS011;5026;51.494;11.974;2023-04-24T10:32:43;1.27;;;1.00;;
9970;SDS011;5026;51.494;11.974;2023-04-24T10:35:11;2.47;;;1.20;;
9970;SDS011;5026;51.494;11.974;2023-04-24T10:37:40;1.45;;;0.82;;
9970;SDS011;5026;51.494;11.974;2023-04-24T10:40:11;1.67;;;0.85;;
9970;SDS011;5026;51.494;11.974;2023-04-24T10:45:17;1.30;;;1.20;;
9970;SDS011;5026;51.494;11.974;2023-04-24T10:47:52;2.83;;;1.23;;
9970;SDS011;5026;51.494;11.974;2023-04-24T10:50:23;1.20;;;0.90;;
9970;SDS011;5026;51.494;11.974;2023-04-24T10:52:52;1.58;;;1.00;;
9970;SDS011;5026;51.494;11.974;2023-04-24T10:55:39;1.67;;;1.13;;
9970;SDS011;5026;51.494;11.974;2023-04-24T10:58:07;1.75;;;1.33;;
9970;SDS011;5026;51.494;11.974;2023-04-24T11:00:37;2.40;;;0.80;;
9970;SDS011;5026;51.494;11.974;2023-04-24T11:03:05;0.80;;;0.80;;
9970;SDS011;5026;51.494;11.974;2023-04-24T11:05:52;1.50;;;1.10;;
9970;SDS011;5026;51.494;11.974;2023-04-24T11:08:25;1.13;;;1.13;;
9970;SDS011;5026;51.494;11.974;2023-04-24T11:10:55;1.92;;;1.10;;
9970;SDS011;5026;51.494;11.974;2023-04-24T11:16:30;1.48;;;0.90;;
9970;SDS011;5026;51.494;11.974;2023-04-24T11:19:03;2.58;;;0.80;;
9970;SDS011;5026;51.494;11.974;2023-04-24T11:21:31;1.40;;;1.30;;
9970;SDS011;5026;51.494;11.974;2023-04-24T11:24:27;1.02;;;0.88;;
9970;SDS011;5026;51.494;11.974;2023-04-24T11:26:56;1.23;;;0.90;;
9970;SDS011;5026;51.494;11.974;2023-04-24T11:29:37;1.85;;;1.20;;
9970;SDS011;5026;51.494;11.974;2023-04-24T11:32:15;1.20;;;0.75;;
9970;SDS011;5026;51.494;11.974;2023-04-24T11:34:45;1.17;;;1.08;;
9970;SDS011;5026;51.494;11.974;2023-04-24T11:37:13;2.90;;;1.27;;
9970;SDS011;5026;51.494;11.974;2023-04-24T11:39:40;1.60;;;1.00;;
9970;SDS011;5026;51.494;11.974;2023-04-24T11:42:07;2.05;;;0.90;;
9970;SDS011;5026;51.494;11.974;2023-04-24T11:44:35;1.98;;;1.10;;
9970;SDS011;5026;51.494;11.974;2023-04-24T11:47:03;1.88;;;1.25;;
9970;SDS011;5026;51.494;11.974;2023-04-24T11:49:32;1.05;;;0.95;;
9970;SDS011;5026;51.494;11.974;2023-04-24T11:51:59;2.67;;;1.35;;
9970;SDS011;5026;51.494;11.974;2023-04-24T11:54:26;1.73;;;1.60;;
9970;SDS011;5026;51.494;11.974;2023-04-24T11:56:53;2.00;;;1.30;;
9970;SDS011;5026;51.494;11.974;2023-04-24T11:59:21;1.40;;;1.30;;
9970;SDS011;5026;51.494;11.974;2023-04-24T12:01:49;1.27;;;1.17;;
9970;SDS011;5026;51.494;11.974;2023-04-24T12:04:16;1.60;;;1.17;;
9970;SDS011;5026;51.494;11.974;2023-04-24T12:07:00;1.40;;;1.30;;
9970;SDS011;5026;51.494;11.974;2023-04-24T12:09:28;1.90;;;1.52;;
9970;SDS011;5026;51.494;11.974;2023-04-24T12:11:55;2.47;;;1.35;;
9970;SDS011;5026;51.494;11.974;2023-04-24T12:14:23;2.53;;;1.45;;
9970;SDS011;5026;51.494;11.974;2023-04-24T12:16:50;1.58;;;1.45;;
9970;SDS011;5026;51.494;11.974;2023-04-24T12:19:18;1.35;;;1.25;;
9970;SDS011;5026;51.494;11.974;2023-04-24T12:21:58;2.33;;;1.27;;
9970;SDS011;5026;51.494;11.974;2023-04-24T12:24:28;2.60;;;1.45;;
9970;SDS011;5026;51.494;11.974;2023-04-24T12:26:55;3.35;;;1.20;;
9970;SDS011;5026;51.494;11.974;2023-04-24T12:29:23;1.38;;;1.20;;
9970;SDS011;5026;51.494;11.974;2023-04-24T12:31:50;1.30;;;1.20;;
9970;SDS011;5026;51.494;11.974;2023-04-24T12:34:18;1.50;;;1.40;;
9970;SDS011;5026;51.494;11.974;2023-04-24T12:36:45;3.30;;;1.30;;
9970;SDS011;5026;51.494;11.974;2023-04-24T12:39:18;1.30;;;1.20;;
9970;SDS011;5026;51.494;11.974;2023-04-24T12:41:54;3.50;;;1.55;;
9970;SDS011;5026;51.494;11.974;2023-04-24T12:44:28;1.05;;;1.05;;
9970;SDS011;5026;51.494;11.974;2023-04-24T12:46:56;1.10;;;1.10;;
9970;SDS011;5026;51.494;11.974;2023-04-24T12:49:23;1.20;;;1.10;;
9970;SDS011;5026;51.494;11.974;2023-04-24T12:51:50;3.88;;;1.40;;
9970;SDS011;5026;51.494;11.974;2023-04-24T12:54:19;1.55;;;1.45;;
9970;SDS011;5026;51.494;11.974;2023-04-24T12:56:46;1.35;;;1.25;;
9970;SDS011;5026;51.494;11.974;2023-04-24T12:59:13;3.10;;;1.30;;
9970;SDS011;5026;51.494;11.974;2023-04-24T13:01:40;1.52;;;1.10;;
9970;SDS011;5026;51.494;11.974;2023-04-24T13:04:07;3.80;;;1.42;;
9970;SDS011;5026;51.494;11.974;2023-04-24T13:06:34;3.17;;;1.13;;
9970;SDS011;5026;51.494;11.974;2023-04-24T13:09:01;2.03;;;1.08;;
9970;SDS011;5026;51.494;11.974;2023-04-24T13:11:31;2.20;;;1.40;;
9970;SDS011;5026;51.494;11.974;2023-04-24T13:13:58;1.23;;;1.13;;
9970;SDS011;5026;51.494;11.974;2023-04-24T13:16:25;1.25;;;1.15;;
9970;SDS011;5026;51.494;11.974;2023-04-24T13:18:51;1.30;;;1.10;;
9970;SDS011;5026;51.494;11.974;2023-04-24T13:21:18;2.95;;;1.48;;
9970;SDS011;5026;51.494;11.974;2023-04-24T13:23:45;1.15;;;1.10;;
9970;SDS011;5026;51.494;11.974;2023-04-24T13:26:12;1.25;;;1.15;;
9970;SDS011;5026;51.494;11.974;2023-04-24T13:28:41;1.48;;;1.13;;
9970;SDS011;5026;51.494;11.974;2023-04-24T13:31:08;1.45;;;1.20;;
9970;SDS011;5026;51.494;11.974;2023-04-24T13:33:35;1.65;;;1.00;;
9970;SDS011;5026;51.494;11.974;2023-04-24T13:36:02;1.17;;;0.95;;
9970;SDS011;5026;51.494;11.974;2023-04-24T13:38:30;1.25;;;1.02;;
9970;SDS011;5026;51.494;11.974;2023-04-24T13:40:57;2.65;;;1.40;;
9970;SDS011;5026;51.494;11.974;2023-04-24T13:43:24;1.27;;;1.10;;
9970;SDS011;5026;51.494;11.974;2023-04-24T13:45:52;0.93;;;0.80;;
9970;SDS011;5026;51.494;11.974;2023-04-24T13:48:19;1.38;;;1.25;;
9970;SDS011;5026;51.494;11.974;2023-04-24T13:50:46;4.88;;;1.20;;
9970;SDS011;5026;51.494;11.974;2023-04-24T13:53:14;1.00;;;1.00;;
9970;SDS011;5026;51.494;11.974;2023-04-24T13:55:41;0.90;;;0.90;;
9970;SDS011;5026;51.494;11.974;2023-04-24T13:58:09;1.15;;;1.00;;
9970;SDS011;5026;51.494;11.974;2023-04-24T14:00:36;2.42;;;1.20;;
9970;SDS011;5026;51.494;11.974;2023-04-24T14:03:05;1.00;;;1.00;;
9970;SDS011;5026;51.494;11.974;2023-04-24T14:05:32;2.03;;;1.35;;
9970;SDS011;5026;51.494;11.974;2023-04-24T14:07:59;1.33;;;1.17;;
9970;SDS011;5026;51.494;11.974;2023-04-24T14:10:26;1.45;;;1.30;;
9970;SDS011;5026;51.494;11.974;2023-04-24T14:12:53;4.68;;;1.58;;
9970;SDS011;5026;51.494;11.974;2023-04-24T14:15:20;2.65;;;1.20;;
9970;SDS011;5026;51.494;11.974;2023-04-24T14:17:47;4.00;;;1.20;;
9970;SDS011;5026;51.494;11.974;2023-04-24T14:20:16;0.80;;;0.80;;
9970;SDS011;5026;51.494;11.974;2023-04-24T14:22:43;0.73;;;0.70;;
9970;SDS011;5026;51.494;11.974;2023-04-24T14:25:10;2.05;;;0.60;;
9970;SDS011;5026;51.494;11.974;2023-04-24T14:27:37;2.15;;;1.08;;
9970;SDS011;5026;51.494;11.974;2023-04-24T14:30:05;0.63;;;0.43;;
9970;SDS011;5026;51.494;11.974;2023-04-24T14:32:33;0.55;;;0.50;;
9970;SDS011;5026;51.494;11.974;2023-04-24T14:35:00;0.90;;;0.63;;
9970;SDS011;5026;51.494;11.974;2023-04-24T14:37:29;2.28;;;1.05;;
9970;SDS011;5026;51.494;11.974;2023-04-24T14:39:56;2.00;;;0.60;;
9970;SDS011;5026;51.494;11.974;2023-04-24T14:42:23;0.57;;;0.43;;
9970;SDS011;5026;51.494;11.974;2023-04-24T14:44:50;2.08;;;0.40;;
9970;SDS011;5026;51.494;11.974;2023-04-24T14:47:17;1.13;;;0.50;;
9970;SDS011;5026;51.494;11.974;2023-04-24T14:49:46;0.50;;;0.50;;
9970;SDS011;5026;51.494;11.974;2023-04-24T14:52:13;0.40;;;0.40;;
9970;SDS011;5026;51.494;11.974;2023-04-24T14:54:42;2.28;;;0.55;;
9970;SDS011;5026;51.494;11.974;2023-04-24T14:57:09;0.50;;;0.50;;
9970;SDS011;5026;51.494;11.974;2023-04-24T14:59:36;1.40;;;0.30;;
9970;SDS011;5026;51.494;11.974;2023-04-24T15:02:03;1.75;;;0.50;;
9970;SDS011;5026;51.494;11.974;2023-04-24T15:04:30;1.60;;;0.40;;
9970;SDS011;5026;51.494;11.974;2023-04-24T15:06:57;0.60;;;0.40;;
9970;SDS011;5026;51.494;11.974;2023-04-24T15:09:24;1.08;;;0.32;;
9970;SDS011;5026;51.494;11.974;2023-04-24T15:11:54;1.67;;;0.32;;